createdAt,value
2023-04-25T00:02:39.146Z,10.10
2023-04-25T00:05:42.539Z,10.13
2023-04-25T00:08:46.676Z,10.19
2023-04-25T00:11:49.420Z,10.25
2023-04-25T00:14:52.299Z,10.20
2023-04-25T00:17:55.018Z,10.13
2023-04-25T00:20:57.943Z,10.15
2023-04-25T00:24:02.337Z,10.21
2023-04-25T00:27:05.328Z,10.25
2023-04-25T00:30:09.207Z,10.24
2023-04-25T00:33:11.988Z,10.21
2023-04-25T00:36:14.795Z,10.15
2023-04-25T00:39:18.850Z,10.07
2023-04-25T00:42:21.897Z,10.05
2023-04-25T00:45:29.320Z,10.14
2023-04-25T00:48:32.079Z,10.22
2023-04-25T00:51:34.914Z,10.30
2023-04-25T00:54:39.441Z,10.37
2023-04-25T00:57:42.605Z,10.42
2023-04-25T01:00:46.914Z,10.42
2023-04-25T01:03:52.525Z,10.32
2023-04-25T01:06:56.464Z,10.29
2023-04-25T01:10:00.894Z,10.32
2023-04-25T01:13:03.921Z,10.39
2023-04-25T01:16:07.316Z,10.36
2023-04-25T01:19:13.126Z,10.33
2023-04-25T01:22:17.868Z,10.25
2023-04-25T01:25:21.643Z,10.15
2023-04-25T01:28:24.609Z,10.13
2023-04-25T01:31:28.320Z,10.09
2023-04-25T01:34:31.190Z,10.11
2023-04-25T01:37:35.563Z,10.06
2023-04-25T01:40:41.067Z,10.02
2023-04-25T01:43:43.898Z,10.02
2023-04-25T01:46:46.826Z,9.97
2023-04-25T01:49:49.554Z,9.97
2023-04-25T01:52:53.544Z,9.94
2023-04-25T01:55:56.291Z,9.92
2023-04-25T01:58:59.641Z,9.95
2023-04-25T02:02:04.685Z,10.01
2023-04-25T02:05:08.623Z,10.00
2023-04-25T02:08:12.757Z,9.99
2023-04-25T02:11:15.523Z,9.95
2023-04-25T02:14:18.473Z,9.90
2023-04-25T02:17:22.624Z,9.91
2023-04-25T02:20:27.215Z,9.98
2023-04-25T02:23:31.932Z,10.01
2023-04-25T02:26:34.792Z,9.98
2023-04-25T02:29:37.689Z,10.02
2023-04-25T02:32:40.646Z,9.89
2023-04-25T02:35:43.379Z,9.79
2023-04-25T02:38:47.445Z,9.74
2023-04-25T02:41:50.193Z,9.73
2023-04-25T02:44:52.822Z,9.70
2023-04-25T02:47:55.582Z,9.71
2023-04-25T02:50:58.287Z,9.81
2023-04-25T02:54:02.503Z,9.78
2023-04-25T02:57:05.239Z,9.87
2023-04-25T03:00:09.270Z,9.92
2023-04-25T03:03:12.498Z,9.84
2023-04-25T03:06:15.602Z,9.78
2023-04-25T03:09:19.608Z,9.81
2023-04-25T03:12:22.319Z,9.76
2023-04-25T03:15:24.970Z,9.79
2023-04-25T03:18:27.692Z,9.87
2023-04-25T03:21:30.468Z,9.94
2023-04-25T03:24:34.590Z,9.89
2023-04-25T03:27:37.325Z,9.78
2023-04-25T03:30:39.963Z,9.73
2023-04-25T03:33:42.658Z,9.68
2023-04-25T03:36:45.323Z,9.65
2023-04-25T03:39:49.503Z,9.59
2023-04-25T03:42:52.228Z,9.54
2023-04-25T03:45:55.076Z,9.57
2023-04-25T03:48:57.814Z,9.70
2023-04-25T03:52:01.242Z,9.72
2023-04-25T03:55:06.755Z,9.74
2023-04-25T03:58:09.895Z,9.78
2023-04-25T04:01:12.675Z,9.75
2023-04-25T04:04:15.568Z,9.74
2023-04-25T04:07:18.478Z,9.65
2023-04-25T04:10:23.115Z,9.67
2023-04-25T04:13:25.806Z,9.63
2023-04-25T04:16:28.596Z,9.65
2023-04-25T04:19:31.297Z,9.64
2023-04-25T04:22:34.379Z,9.61
2023-04-25T04:25:38.521Z,9.54
2023-04-25T04:28:41.235Z,9.42
2023-04-25T04:31:43.957Z,9.39
2023-04-25T04:34:48.293Z,9.44
2023-04-25T04:37:51.576Z,9.49
2023-04-25T04:40:55.681Z,9.51
2023-04-25T04:43:58.417Z,9.56
2023-04-25T04:47:02.335Z,9.56
2023-04-25T04:50:05.983Z,9.49
2023-04-25T04:53:09.491Z,9.49
2023-04-25T04:56:13.574Z,9.55
2023-04-25T04:59:16.330Z,9.59
2023-04-25T05:02:19.106Z,9.65
2023-04-25T05:05:21.980Z,9.64
2023-04-25T05:08:24.654Z,9.61
2023-04-25T05:11:28.681Z,9.69
2023-04-25T05:14:31.406Z,9.76
2023-04-25T05:17:34.673Z,9.74
2023-04-25T05:20:37.485Z,9.84
2023-04-25T05:23:40.219Z,9.94
2023-04-25T05:26:44.245Z,9.95
2023-04-25T05:29:47.027Z,9.94
2023-04-25T05:32:49.812Z,10.05
2023-04-25T05:35:52.626Z,10.03
2023-04-25T05:38:55.325Z,10.02
2023-04-25T05:41:59.407Z,9.96
2023-04-25T05:45:02.707Z,9.87
2023-04-25T05:48:05.455Z,9.91
2023-04-25T05:51:08.198Z,9.94
2023-04-25T05:54:11.779Z,9.87
2023-04-25T05:57:22.770Z,9.90
2023-04-25T06:00:25.687Z,9.82
2023-04-25T06:03:28.599Z,9.74
2023-04-25T06:06:31.561Z,9.70
2023-04-25T06:09:34.263Z,9.69
2023-04-25T06:12:39.334Z,9.73
2023-04-25T06:15:42.104Z,9.83
2023-04-25T06:18:44.798Z,9.86
2023-04-25T06:21:47.507Z,9.90
2023-04-25T06:24:50.179Z,10.01
2023-04-25T06:27:54.302Z,10.17
2023-04-25T06:30:57.192Z,10.27
2023-04-25T06:34:00.649Z,10.29
2023-04-25T06:37:03.430Z,10.40
2023-04-25T06:40:08.192Z,10.48
2023-04-25T06:43:12.314Z,10.51
2023-04-25T06:46:15.045Z,10.57
2023-04-25T06:49:17.745Z,10.59
2023-04-25T06:52:23.308Z,10.56
2023-04-25T06:55:26.113Z,10.46
2023-04-25T06:58:30.153Z,10.44
2023-04-25T07:01:32.854Z,10.50
2023-04-25T07:04:35.712Z,10.52
2023-04-25T07:07:38.586Z,10.46
2023-04-25T07:10:41.391Z,10.45
2023-04-25T07:13:45.589Z,10.51
2023-04-25T07:16:48.390Z,10.53
2023-04-25T07:19:51.190Z,10.51
2023-04-25T07:22:53.980Z,10.41
2023-04-25T07:25:56.810Z,10.27
2023-04-25T07:29:00.947Z,10.21
2023-04-25T07:32:03.756Z,10.17
2023-04-25T07:35:08.737Z,10.13
2023-04-25T07:38:11.490Z,10.22
2023-04-25T07:41:14.307Z,10.15
2023-04-25T07:44:18.322Z,10.24
2023-04-25T07:47:21.292Z,10.15
2023-04-25T07:50:24.215Z,10.09
2023-04-25T07:53:27.114Z,10.11
2023-04-25T07:56:38.543Z,10.07
2023-04-25T07:59:49.455Z,10.23
2023-04-25T08:02:53.067Z,10.39
2023-04-25T08:05:56.713Z,10.44
2023-04-25T08:08:59.547Z,10.46
2023-04-25T08:12:02.944Z,10.53
2023-04-25T08:15:08.420Z,10.45
2023-04-25T08:18:11.234Z,10.35
2023-04-25T08:21:14.315Z,10.25
2023-04-25T08:24:17.075Z,10.19
2023-04-25T08:27:20.117Z,10.11
2023-04-25T08:30:24.200Z,10.20
2023-04-25T08:33:27.096Z,10.22
2023-04-25T08:39:35.614Z,10.37
2023-04-25T08:42:40.043Z,10.50
2023-04-25T08:45:44.512Z,10.52
2023-04-25T08:48:48.136Z,10.57
2023-04-25T08:51:52.642Z,10.49
2023-04-25T08:54:57.323Z,10.46
2023-04-25T08:58:01.694Z,10.42
2023-04-25T09:01:06.145Z,10.37
2023-04-25T09:04:09.181Z,10.45
2023-04-25T09:07:12.359Z,10.36
2023-04-25T09:10:16.846Z,10.39
2023-04-25T09:13:27.344Z,10.35
2023-04-25T09:16:32.263Z,10.28
2023-04-25T09:19:40.822Z,10.17
2023-04-25T09:22:48.042Z,10.24
2023-04-25T09:25:51.511Z,10.32
2023-04-25T09:29:07.771Z,10.32
2023-04-25T09:32:22.550Z,10.33
2023-04-25T09:35:27.528Z,10.31
2023-04-25T09:38:32.713Z,10.28
2023-04-25T09:41:39.912Z,10.31
2023-04-25T09:44:45.411Z,10.31
2023-04-25T09:47:50.979Z,10.32
2023-04-25T09:51:06.557Z,10.22
2023-04-25T09:54:09.389Z,10.21
2023-04-25T09:57:16.914Z,10.13
2023-04-25T10:00:22.298Z,10.06
2023-04-25T10:03:28.325Z,9.93
2023-04-25T10:06:32.673Z,9.83
2023-04-25T10:09:38.527Z,9.73
2023-04-25T10:12:44.390Z,9.67
2023-04-25T10:15:49.134Z,9.56
2023-04-25T10:18:53.827Z,9.46
2023-04-25T10:22:04.305Z,9.27
2023-04-25T10:25:09.574Z,9.19
2023-04-25T10:28:12.518Z,9.18
2023-04-25T10:31:18.421Z,9.17
2023-04-25T10:34:27.267Z,9.18
2023-04-25T10:37:32.300Z,9.24
2023-04-25T10:40:35.518Z,9.11
2023-04-25T10:43:40.443Z,9.16
2023-04-25T10:46:43.359Z,9.19
2023-04-25T10:49:52.737Z,9.22
2023-04-25T10:52:55.829Z,9.25
2023-04-25T10:55:58.588Z,9.27
2023-04-25T10:59:11.055Z,9.34
2023-04-25T11:02:14.953Z,9.39
2023-04-25T11:05:24.498Z,9.34
2023-04-25T11:08:41.135Z,9.33
2023-04-25T11:11:44.003Z,9.49
2023-04-25T11:14:46.817Z,9.50
2023-04-25T11:17:49.699Z,9.47
2023-04-25T11:20:53.976Z,9.50
2023-04-25T11:23:58.478Z,9.56
2023-04-25T11:27:03.625Z,9.67
2023-04-25T11:30:14.262Z,9.72
2023-04-25T11:33:17.216Z,9.81
2023-04-25T11:36:21.656Z,9.83
2023-04-25T11:39:26.228Z,9.74
2023-04-25T11:42:29.211Z,9.79
2023-04-25T11:45:32.972Z,9.71
2023-04-25T11:48:39.681Z,9.72
2023-04-25T11:51:44.846Z,9.78
2023-04-25T11:54:47.761Z,9.86
2023-04-25T11:57:52.213Z,9.93
2023-04-25T12:00:55.258Z,9.96
2023-04-25T12:03:58.323Z,10.02
2023-04-25T12:07:03.582Z,10.00
2023-04-25T12:10:08.377Z,9.90
2023-04-25T12:13:22.861Z,9.85
2023-04-25T12:16:25.579Z,9.75
2023-04-25T12:19:33.752Z,9.82
2023-04-25T12:22:38.520Z,9.87
2023-04-25T12:25:43.096Z,9.82
2023-04-25T12:28:48.263Z,10.02
2023-04-25T12:31:52.328Z,10.13
2023-04-25T12:34:55.509Z,10.28
2023-04-25T12:38:00.076Z,10.52
2023-04-25T12:41:02.762Z,10.74
2023-04-25T12:44:05.935Z,11.09
2023-04-25T12:47:08.859Z,11.27
2023-04-25T12:50:12.514Z,11.55
2023-04-25T12:53:17.112Z,11.68
2023-04-25T12:56:22.286Z,11.64
2023-04-25T12:59:26.418Z,11.52
2023-04-25T13:02:29.601Z,11.35
2023-04-25T13:05:32.906Z,11.18
2023-04-25T13:08:37.858Z,11.17
2023-04-25T13:11:41.448Z,11.28
2023-04-25T13:14:44.633Z,11.36
2023-04-25T13:17:47.657Z,11.48
2023-04-25T13:20:50.339Z,11.59
2023-04-25T13:23:54.671Z,11.64
2023-04-25T13:26:57.923Z,11.51
2023-04-25T13:30:01.276Z,11.41
2023-04-25T13:33:04.473Z,11.32
2023-04-25T13:36:07.642Z,11.27
2023-04-25T13:39:13.212Z,11.27
2023-04-25T13:42:16.935Z,11.29
2023-04-25T13:45:20.012Z,11.43
2023-04-25T13:48:23.642Z,11.47
2023-04-25T13:51:27.474Z,11.52
2023-04-25T13:54:31.643Z,11.52
2023-04-25T13:57:34.825Z,11.65
2023-04-25T14:00:39.632Z,11.74
2023-04-25T14:03:42.461Z,11.85
2023-04-25T14:06:45.959Z,12.00
2023-04-25T14:09:50.577Z,12.10
2023-04-25T14:12:53.327Z,12.35
2023-04-25T14:15:56.902Z,12.49
2023-04-25T14:19:00.147Z,12.63
2023-04-25T14:22:02.882Z,12.65
2023-04-25T14:25:10.704Z,12.63
2023-04-25T14:28:13.619Z,12.59
2023-04-25T14:31:16.596Z,12.69
2023-04-25T14:34:19.650Z,13.00
2023-04-25T14:37:22.442Z,13.07
2023-04-25T14:40:27.996Z,12.97
2023-04-25T14:43:30.828Z,13.04
2023-04-25T14:46:33.772Z,13.07
2023-04-25T14:49:36.572Z,12.86
2023-04-25T14:52:39.586Z,12.69
2023-04-25T14:55:43.935Z,12.73
2023-04-25T14:58:47.311Z,12.80
2023-04-25T15:01:50.105Z,12.80
2023-04-25T15:04:53.021Z,12.72
2023-04-25T15:07:56.170Z,12.62
2023-04-25T15:11:00.691Z,12.76
2023-04-25T15:14:03.770Z,13.16
2023-04-25T15:17:06.544Z,13.62
2023-04-25T15:20:10.873Z,13.79
2023-04-25T15:23:13.824Z,13.70
2023-04-25T15:26:17.954Z,13.51
2023-04-25T15:29:21.316Z,13.30
2023-04-25T15:32:24.787Z,13.21
2023-04-25T15:35:27.980Z,13.10
2023-04-25T15:38:30.841Z,12.93
2023-04-25T15:41:35.089Z,12.85
2023-04-25T15:44:37.916Z,12.60
2023-04-25T15:47:40.781Z,12.64
2023-04-25T15:50:43.748Z,12.58
2023-04-25T15:53:47.209Z,12.63
2023-04-25T15:56:51.400Z,12.77
2023-04-25T15:59:54.318Z,12.80
2023-04-25T16:02:57.365Z,12.69
2023-04-25T16:06:00.285Z,12.54
2023-04-25T16:09:03.132Z,12.39
2023-04-25T16:12:08.493Z,12.22
2023-04-25T16:15:11.624Z,12.04
2023-04-25T16:18:14.536Z,11.98
2023-04-25T16:21:17.563Z,12.03
2023-04-25T16:24:20.246Z,12.06
2023-04-25T16:27:24.192Z,12.19
2023-04-25T16:30:26.920Z,12.16
2023-04-25T16:33:29.627Z,12.09
2023-04-25T16:36:33.555Z,11.98
2023-04-25T16:39:36.142Z,11.86
2023-04-25T16:42:40.172Z,11.78
2023-04-25T16:45:42.855Z,11.74
2023-04-25T16:48:45.787Z,11.70
2023-04-25T16:51:48.549Z,11.65
2023-04-25T16:54:51.172Z,11.69
2023-04-25T16:57:55.144Z,11.61
2023-04-25T17:00:57.872Z,11.63
2023-04-25T17:04:00.862Z,11.58
2023-04-25T17:07:03.884Z,11.52
2023-04-25T17:10:07.189Z,11.38
2023-04-25T17:13:11.171Z,11.32
2023-04-25T17:16:16.655Z,11.32
2023-04-25T17:19:19.375Z,11.28
2023-04-25T17:22:22.569Z,11.22
2023-04-25T17:25:25.414Z,11.20
2023-04-25T17:28:29.528Z,11.22
2023-04-25T17:31:32.309Z,11.09
2023-04-25T17:34:37.489Z,11.03
2023-04-25T17:37:40.817Z,10.96
2023-04-25T17:40:43.457Z,10.84
2023-04-25T17:43:47.602Z,10.75
2023-04-25T17:46:51.141Z,10.64
2023-04-25T17:49:54.618Z,10.48
2023-04-25T17:52:57.272Z,10.39
2023-04-25T17:55:59.875Z,10.26
2023-04-25T17:59:04.652Z,10.17
2023-04-25T18:02:07.348Z,9.98
2023-04-25T18:05:10.871Z,9.94
2023-04-25T18:08:15.022Z,9.83
2023-04-25T18:11:17.738Z,9.62
2023-04-25T18:14:22.905Z,9.64
2023-04-25T18:17:25.522Z,9.62
2023-04-25T18:20:28.534Z,9.61
2023-04-25T18:23:32.413Z,9.57
2023-04-25T18:26:35.046Z,9.64
2023-04-25T18:29:39.071Z,9.71
2023-04-25T18:32:44.106Z,9.67
2023-04-25T18:35:57.554Z,9.70
2023-04-25T18:39:11.717Z,9.68
2023-04-25T18:42:27.320Z,9.50
2023-04-25T18:45:31.322Z,9.47
2023-04-25T18:48:34.111Z,9.53
2023-04-25T18:51:37.052Z,9.44
2023-04-25T18:54:40.638Z,9.44
2023-04-25T18:57:44.072Z,9.46
2023-04-25T19:00:48.962Z,9.42
2023-04-25T19:03:55.886Z,9.41
2023-04-25T19:06:58.993Z,9.42
2023-04-25T19:10:01.617Z,9.40
2023-04-25T19:13:04.249Z,9.33
2023-04-25T19:16:08.953Z,9.31
2023-04-25T19:19:11.768Z,9.27
2023-04-25T19:22:14.443Z,9.34
2023-04-25T19:25:17.583Z,9.34
2023-04-25T19:28:20.378Z,9.29
2023-04-25T19:31:24.813Z,9.29
2023-04-25T19:34:28.329Z,9.32
2023-04-25T19:37:31.609Z,9.33
2023-04-25T19:40:34.554Z,9.30
2023-04-25T19:43:37.693Z,9.35
2023-04-25T19:46:42.803Z,9.29
2023-04-25T19:49:46.044Z,9.26
2023-04-25T19:52:48.835Z,9.15
2023-04-25T19:55:51.740Z,9.08
2023-04-25T19:58:54.834Z,9.21
2023-04-25T20:01:59.674Z,9.15
2023-04-25T20:05:02.698Z,9.10
2023-04-25T20:08:05.664Z,9.18
2023-04-25T20:11:08.656Z,9.24
2023-04-25T20:14:11.583Z,9.19
2023-04-25T20:17:16.308Z,9.21
2023-04-25T20:20:20.259Z,9.16
2023-04-25T20:23:23.588Z,9.08
2023-04-25T20:26:27.216Z,9.03
2023-04-25T20:29:31.415Z,9.00
2023-04-25T20:32:37.031Z,9.01
2023-04-25T20:35:40.338Z,9.03
2023-04-25T20:38:43.192Z,9.00
2023-04-25T20:41:46.364Z,9.00
2023-04-25T20:44:49.742Z,9.00
2023-04-25T20:47:54.788Z,8.96
2023-04-25T20:50:58.954Z,8.96
2023-04-25T20:54:04.073Z,8.91
2023-04-25T20:57:07.526Z,8.90
2023-04-25T21:00:18.301Z,8.86
2023-04-25T21:03:23.428Z,8.86
2023-04-25T21:06:28.523Z,8.87
2023-04-25T21:09:33.138Z,8.87
2023-04-25T21:12:38.062Z,8.86
2023-04-25T21:15:42.526Z,8.89
2023-04-25T21:18:48.108Z,8.87
2023-04-25T21:21:51.171Z,8.81
2023-04-25T21:24:54.337Z,8.85
2023-04-25T21:27:57.238Z,8.89
2023-04-25T21:31:00.308Z,8.85
2023-04-25T21:34:04.640Z,8.82
2023-04-25T21:37:07.358Z,8.84
2023-04-25T21:40:10.940Z,8.80
2023-04-25T21:43:13.696Z,8.90
2023-04-25T21:46:23.477Z,8.99
2023-04-25T21:49:29.678Z,8.97
2023-04-25T21:52:32.778Z,8.95
2023-04-25T21:55:36.216Z,8.88
2023-04-25T21:58:38.939Z,8.85
2023-04-25T22:01:41.826Z,8.84
2023-04-25T22:04:47.395Z,8.76
2023-04-25T22:07:51.621Z,8.77
2023-04-25T22:10:55.271Z,8.73
2023-04-25T22:13:58.114Z,8.76
2023-04-25T22:17:01.238Z,8.74
2023-04-25T22:20:10.246Z,8.73
2023-04-25T22:23:13.149Z,8.75
2023-04-25T22:26:16.070Z,8.80
2023-04-25T22:29:18.803Z,8.74
2023-04-25T22:32:21.577Z,8.78
2023-04-25T22:35:25.870Z,8.78
2023-04-25T22:38:28.653Z,8.78
2023-04-25T22:41:31.652Z,8.77
2023-04-25T22:44:34.534Z,8.81
2023-04-25T22:47:38.380Z,8.78
2023-04-25T22:50:43.428Z,8.77
2023-04-25T22:53:46.226Z,8.76
2023-04-25T22:56:48.953Z,8.71
2023-04-25T22:59:56.146Z,8.71
2023-04-25T23:02:59.247Z,8.74
2023-04-25T23:06:03.814Z,8.77
2023-04-25T23:09:08.544Z,8.77
2023-04-25T23:12:11.370Z,8.74
2023-04-25T23:15:14.102Z,8.74
2023-04-25T23:18:17.226Z,8.72
2023-04-25T23:21:21.662Z,8.69
2023-04-25T23:24:24.965Z,8.73
2023-04-25T23:27:27.900Z,8.90
2023-04-25T23:30:30.675Z,8.85
2023-04-25T23:33:33.456Z,8.78
2023-04-25T23:36:37.612Z,8.73
2023-04-25T23:39:40.381Z,8.77
2023-04-25T23:42:43.227Z,8.72
2023-04-25T23:45:46.654Z,8.65
2023-04-25T23:48:49.470Z,8.59
2023-04-25T23:51:53.872Z,8.50
2023-04-25T23:54:56.911Z,8.49
2023-04-25T23:57:59.763Z,8.50
